Time;durP1;ratioP1;P1;durP2;ratioP2;P2;SDS_P1;SDS_P2;PMS_P1;PMS_P2;Temp;Humidity;BMP_temperature;BMP_pressure;BME280_temperature;BME280_humidity;BME280_pressure;Samples;Min_cycle;Max_cycle;Signal;HPM_P1;HPM_P2
2022/12/26 00:01:31;;;;;;;16.20;9.43;;;;;;;;;;5068243;28;20032;-77
2022/12/26 00:03:57;;;;;;;16.92;8.93;;;;;;;;;;5058686;28;20028;-80
2022/12/26 00:06:26;;;;;;;17.33;9.32;;;;;;;;;;5063903;28;20024;-79
2022/12/26 00:08:52;;;;;;;16.75;9.02;;;;;;;;;;5063212;28;20033;-80
2022/12/26 00:11:18;;;;;;;18.75;9.85;;;;;;;;;;5068139;28;20141;-79
2022/12/26 00:13:44;;;;;;;17.20;9.52;;;;;;;;;;5074474;28;20032;-80
2022/12/26 00:16:18;;;;;;;16.70;9.45;;;;;;;;;;5066137;28;20496;-79
2022/12/26 00:18:44;;;;;;;15.75;9.05;;;;;;;;;;5067372;28;20047;-80
2022/12/26 00:21:12;;;;;;;17.73;8.82;;;;;;;;;;5072637;28;20077;-80
2022/12/26 00:23:38;;;;;;;19.23;9.50;;;;;;;;;;5071976;28;20078;-80
2022/12/26 00:26:10;;;;;;;16.65;9.60;;;;;;;;;;5064803;28;20567;-80
2022/12/26 00:28:36;;;;;;;17.67;9.07;;;;;;;;;;5072421;28;20047;-80
2022/12/26 00:31:06;;;;;;;15.70;8.93;;;;;;;;;;5070314;28;20036;-80
2022/12/26 00:33:36;;;;;;;19.02;9.85;;;;;;;;;;5065784;28;20066;-80
2022/12/26 00:36:07;;;;;;;14.93;9.02;;;;;;;;;;5074146;28;20039;-79
2022/12/26 00:38:34;;;;;;;14.68;8.73;;;;;;;;;;5071718;28;20025;-80
2022/12/26 00:41:00;;;;;;;15.50;8.55;;;;;;;;;;5068522;28;20033;-80
2022/12/26 00:43:25;;;;;;;16.42;9.27;;;;;;;;;;5071787;28;20040;-80
2022/12/26 00:45:50;;;;;;;16.95;10.00;;;;;;;;;;5071921;28;20039;-80
2022/12/26 00:48:16;;;;;;;15.10;9.57;;;;;;;;;;5071252;28;20039;-80
2022/12/26 00:50:41;;;;;;;17.02;9.50;;;;;;;;;;5067489;28;20385;-79
2022/12/26 00:53:07;;;;;;;15.60;9.43;;;;;;;;;;5065252;28;20028;-79
2022/12/26 00:55:32;;;;;;;15.48;9.80;;;;;;;;;;5069857;28;20028;-80
2022/12/26 00:57:58;;;;;;;16.60;9.38;;;;;;;;;;5068069;28;20024;-79
2022/12/26 01:00:23;;;;;;;17.23;10.07;;;;;;;;;;5067326;28;20041;-79
2022/12/26 01:02:49;;;;;;;15.80;10.15;;;;;;;;;;5066313;28;20029;-80
2022/12/26 01:05:14;;;;;;;14.60;8.65;;;;;;;;;;5067986;28;20086;-80
2022/12/26 01:07:39;;;;;;;16.85;9.88;;;;;;;;;;5062194;28;20109;-79
2022/12/26 01:10:07;;;;;;;17.73;9.88;;;;;;;;;;5060632;28;20033;-79
2022/12/26 01:12:32;;;;;;;15.50;8.70;;;;;;;;;;5064935;28;20476;-80
2022/12/26 01:14:58;;;;;;;16.38;9.80;;;;;;;;;;5063508;28;20027;-79
2022/12/26 01:17:25;;;;;;;17.48;10.32;;;;;;;;;;5060647;28;20214;-80
2022/12/26 01:19:51;;;;;;;16.45;9.60;;;;;;;;;;5056597;28;20037;-80
2022/12/26 01:22:16;;;;;;;14.60;8.88;;;;;;;;;;5065744;28;20051;-79
2022/12/26 01:24:41;;;;;;;16.48;9.38;;;;;;;;;;5062616;28;20539;-79
2022/12/26 01:27:07;;;;;;;15.32;10.00;;;;;;;;;;5068745;28;20037;-79
2022/12/26 01:29:32;;;;;;;15.65;9.20;;;;;;;;;;5062262;28;20127;-80
2022/12/26 01:31:58;;;;;;;16.55;8.85;;;;;;;;;;5067079;28;20162;-80
2022/12/26 01:34:23;;;;;;;15.55;9.68;;;;;;;;;;5062450;28;20033;-78
2022/12/26 01:36:51;;;;;;;15.05;9.07;;;;;;;;;;5066078;28;20031;-80
2022/12/26 01:39:16;;;;;;;15.23;8.93;;;;;;;;;;5058637;28;20033;-80
2022/12/26 01:41:42;;;;;;;15.82;9.50;;;;;;;;;;5063449;28;20373;-79
2022/12/26 01:44:45;;;;;;;14.68;9.50;;;;;;;;;;5067774;28;20067;-80
2022/12/26 01:47:12;;;;;;;14.73;8.95;;;;;;;;;;5062366;28;20043;-79
2022/12/26 01:49:42;;;;;;;14.55;9.38;;;;;;;;;;5062772;28;20065;-80
2022/12/26 01:52:13;;;;;;;13.60;8.52;;;;;;;;;;5060531;28;20824;-80
2022/12/26 01:54:41;;;;;;;15.13;9.10;;;;;;;;;;5057849;28;20029;-79
2022/12/26 01:57:11;;;;;;;15.50;9.70;;;;;;;;;;5066134;28;20560;-80
2022/12/26 01:59:39;;;;;;;15.20;9.35;;;;;;;;;;5063973;28;20032;-80
2022/12/26 02:02:05;;;;;;;16.42;10.15;;;;;;;;;;5056032;28;20037;-78
2022/12/26 02:07:21;;;;;;;15.35;9.80;;;;;;;;;;5063750;28;20050;-78
2022/12/26 02:09:47;;;;;;;16.50;10.00;;;;;;;;;;5066677;28;20119;-80
2022/12/26 02:12:23;;;;;;;17.98;10.50;;;;;;;;;;5058400;28;20043;-80
2022/12/26 02:14:49;;;;;;;19.17;11.27;;;;;;;;;;5060493;28;20140;-80
2022/12/26 02:17:16;;;;;;;16.10;10.02;;;;;;;;;;5061923;28;20510;-81
2022/12/26 02:19:58;;;;;;;17.27;10.63;;;;;;;;;;5068985;28;20995;-80
2022/12/26 02:22:47;;;;;;;18.42;10.55;;;;;;;;;;5064360;28;20052;-78
2022/12/26 02:25:34;;;;;;;18.00;10.98;;;;;;;;;;5067987;28;20054;-80
2022/12/26 02:28:14;;;;;;;18.80;11.25;;;;;;;;;;5061210;28;20059;-80
2022/12/26 02:31:13;;;;;;;20.08;11.25;;;;;;;;;;5059562;28;20032;-80
2022/12/26 02:33:59;;;;;;;17.30;9.98;;;;;;;;;;5059901;28;20424;-79
2022/12/26 02:36:58;;;;;;;19.50;11.35;;;;;;;;;;5062662;28;20032;-80
2022/12/26 02:39:29;;;;;;;18.30;11.07;;;;;;;;;;5066695;28;20056;-77
2022/12/26 02:42:02;;;;;;;15.80;10.43;;;;;;;;;;5063415;28;20021;-80
2022/12/26 02:48:04;;;;;;;17.80;10.60;;;;;;;;;;5061561;28;20217;-80
2022/12/26 03:13:26;;;;;;;20.70;13.30;;;;;;;;;;5063942;28;20043;-78
2022/12/26 03:18:47;;;;;;;22.98;12.85;;;;;;;;;;5064259;28;20446;-80
2022/12/26 03:21:16;;;;;;;20.90;13.07;;;;;;;;;;5077631;28;20036;-80
2022/12/26 03:23:45;;;;;;;21.42;13.23;;;;;;;;;;5065558;28;20426;-78
2022/12/26 03:26:39;;;;;;;21.08;12.98;;;;;;;;;;5065636;28;20404;-80
2022/12/26 03:31:55;;;;;;;20.02;12.52;;;;;;;;;;5060790;28;20031;-80
2022/12/26 03:34:21;;;;;;;20.08;13.07;;;;;;;;;;5061302;28;20107;-80
2022/12/26 03:37:12;;;;;;;21.10;12.70;;;;;;;;;;5059145;28;20465;-80
2022/12/26 04:44:11;;;;;;;11.40;7.55;;;;;;;;;;5064666;28;20055;-80
2022/12/26 04:46:44;;;;;;;11.63;7.35;;;;;;;;;;5061363;28;20047;-80
2022/12/26 04:51:58;;;;;;;9.48;6.60;;;;;;;;;;5056672;28;20040;-80
2022/12/26 04:54:25;;;;;;;9.30;6.32;;;;;;;;;;5053899;28;20432;-79
2022/12/26 04:56:51;;;;;;;10.98;5.97;;;;;;;;;;5057992;28;20029;-80
2022/12/26 04:59:17;;;;;;;9.88;5.93;;;;;;;;;;5057391;28;20020;-80
2022/12/26 05:10:00;;;;;;;7.85;5.35;;;;;;;;;;5066383;28;20447;-80
2022/12/26 05:12:26;;;;;;;7.70;5.32;;;;;;;;;;5069010;28;20064;-80
2022/12/26 05:14:52;;;;;;;6.90;4.63;;;;;;;;;;5065833;28;20031;-80
2022/12/26 05:31:02;;;;;;;7.95;4.90;;;;;;;;;;5059139;28;20063;-80
2022/12/26 05:36:13;;;;;;;6.47;4.50;;;;;;;;;;5064708;28;20082;-80
2022/12/26 05:38:39;;;;;;;6.70;4.30;;;;;;;;;;5063507;28;20494;-80
2022/12/26 05:41:04;;;;;;;6.85;3.92;;;;;;;;;;5065118;28;20036;-80
2022/12/26 05:43:30;;;;;;;6.55;4.30;;;;;;;;;;5066400;28;20028;-80
2022/12/26 05:45:56;;;;;;;8.43;4.47;;;;;;;;;;5058708;28;21014;-80
2022/12/26 05:48:21;;;;;;;6.47;3.67;;;;;;;;;;5062927;28;20131;-79
2022/12/26 05:50:46;;;;;;;5.88;4.00;;;;;;;;;;5061227;28;20039;-80
2022/12/26 05:53:12;;;;;;;5.60;3.90;;;;;;;;;;5067198;28;20028;-79
2022/12/26 05:55:37;;;;;;;6.45;3.90;;;;;;;;;;5061882;28;20029;-81
2022/12/26 05:58:03;;;;;;;6.47;3.83;;;;;;;;;;5062228;28;20455;-80
2022/12/26 06:00:29;;;;;;;6.75;3.88;;;;;;;;;;5064945;28;20057;-79
2022/12/26 06:02:54;;;;;;;5.75;3.83;;;;;;;;;;5058295;28;20020;-80
2022/12/26 06:05:20;;;;;;;6.50;4.07;;;;;;;;;;5062032;28;20101;-80
2022/12/26 06:07:45;;;;;;;6.25;4.20;;;;;;;;;;5065221;28;20365;-79
2022/12/26 06:10:11;;;;;;;6.57;3.88;;;;;;;;;;5064693;28;20028;-80
2022/12/26 06:12:37;;;;;;;6.70;4.07;;;;;;;;;;5055817;28;20090;-80
2022/12/26 06:15:03;;;;;;;7.07;4.13;;;;;;;;;;5064645;28;20439;-80
2022/12/26 06:17:28;;;;;;;6.53;4.25;;;;;;;;;;5065962;28;20029;-80
2022/12/26 06:19:54;;;;;;;8.05;4.45;;;;;;;;;;5066600;28;20030;-78
2022/12/26 06:22:19;;;;;;;13.52;4.47;;;;;;;;;;5078119;28;20025;-81
2022/12/26 06:24:44;;;;;;;7.03;4.30;;;;;;;;;;5065055;28;20036;-80
2022/12/26 06:27:10;;;;;;;8.75;4.50;;;;;;;;;;5064771;28;20105;-80
2022/12/26 06:29:35;;;;;;;8.02;4.50;;;;;;;;;;5068401;28;20530;-80
2022/12/26 06:32:01;;;;;;;7.50;4.18;;;;;;;;;;5062423;28;20103;-80
2022/12/26 06:34:27;;;;;;;7.03;4.53;;;;;;;;;;5061865;28;20469;-80
2022/12/26 06:36:54;;;;;;;7.03;5.07;;;;;;;;;;5062237;28;20027;-80
2022/12/26 06:39:19;;;;;;;8.95;5.18;;;;;;;;;;5066765;28;20085;-80
2022/12/26 06:41:45;;;;;;;10.30;4.70;;;;;;;;;;5066410;28;20040;-81
2022/12/26 06:44:10;;;;;;;8.60;4.85;;;;;;;;;;5063060;28;20028;-79
2022/12/26 06:46:36;;;;;;;7.60;4.30;;;;;;;;;;5061954;28;20033;-80
2022/12/26 06:49:01;;;;;;;8.10;4.82;;;;;;;;;;5060288;28;20489;-80
2022/12/26 06:51:27;;;;;;;6.78;4.57;;;;;;;;;;5065245;28;20032;-80
2022/12/26 06:53:53;;;;;;;7.60;5.00;;;;;;;;;;5062823;28;20477;-80
2022/12/26 06:56:24;;;;;;;7.68;4.88;;;;;;;;;;5062698;28;20051;-80
2022/12/26 06:58:53;;;;;;;9.50;6.07;;;;;;;;;;5059067;28;20024;-80
2022/12/26 07:01:20;;;;;;;6.57;4.28;;;;;;;;;;5065659;28;20032;-80
2022/12/26 07:03:47;;;;;;;6.95;4.60;;;;;;;;;;5059207;28;20021;-80
2022/12/26 07:06:23;;;;;;;7.30;4.78;;;;;;;;;;5061257;28;20554;-80
2022/12/26 07:08:49;;;;;;;6.80;4.35;;;;;;;;;;5065763;28;20020;-80
2022/12/26 07:11:20;;;;;;;6.80;4.32;;;;;;;;;;5066683;28;20039;-80
2022/12/26 07:13:46;;;;;;;7.70;4.25;;;;;;;;;;5061149;28;20020;-80
2022/12/26 07:16:12;;;;;;;5.95;4.25;;;;;;;;;;5061388;28;20523;-78
2022/12/26 07:18:37;;;;;;;6.95;4.07;;;;;;;;;;5055011;28;20059;-80
2022/12/26 07:21:07;;;;;;;6.75;4.20;;;;;;;;;;5063468;28;20029;-80
2022/12/26 07:23:33;;;;;;;8.20;4.70;;;;;;;;;;5063681;28;20043;-80
2022/12/26 07:25:59;;;;;;;6.07;4.18;;;;;;;;;;5063399;28;20028;-80
2022/12/26 07:28:25;;;;;;;7.32;4.10;;;;;;;;;;5060227;28;20029;-79
2022/12/26 07:30:50;;;;;;;8.00;4.55;;;;;;;;;;5064662;28;20495;-80
2022/12/26 07:33:16;;;;;;;5.38;3.58;;;;;;;;;;5062483;28;20052;-81
2022/12/26 07:35:42;;;;;;;6.22;3.63;;;;;;;;;;5059034;28;20085;-80
2022/12/26 07:38:08;;;;;;;5.28;3.67;;;;;;;;;;5061585;28;20037;-80
2022/12/26 07:40:34;;;;;;;7.35;3.72;;;;;;;;;;5066130;28;20070;-80
2022/12/26 07:42:59;;;;;;;5.18;3.38;;;;;;;;;;5071528;28;20023;-80
2022/12/26 07:45:24;;;;;;;5.25;3.10;;;;;;;;;;5056224;28;20032;-79
2022/12/26 07:47:54;;;;;;;4.95;3.15;;;;;;;;;;5061129;28;20141;-80
2022/12/26 07:50:19;;;;;;;4.43;2.85;;;;;;;;;;5059676;28;20028;-80
2022/12/26 07:52:44;;;;;;;5.13;2.97;;;;;;;;;;5062742;28;20031;-80
2022/12/26 07:55:10;;;;;;;4.80;2.88;;;;;;;;;;5055825;28;20024;-80
2022/12/26 07:57:35;;;;;;;5.15;2.85;;;;;;;;;;5054551;28;20115;-81
2022/12/26 08:00:00;;;;;;;4.85;2.92;;;;;;;;;;5055549;28;20067;-80
2022/12/26 08:02:26;;;;;;;6.10;2.92;;;;;;;;;;5058721;28;20025;-80
2022/12/26 08:04:51;;;;;;;5.07;2.90;;;;;;;;;;5061293;28;20040;-80
2022/12/26 08:07:17;;;;;;;4.65;2.67;;;;;;;;;;5066725;28;20116;-80
2022/12/26 08:09:44;;;;;;;4.78;2.58;;;;;;;;;;5063536;28;20020;-80
2022/12/26 08:12:10;;;;;;;6.30;2.30;;;;;;;;;;5059359;28;20025;-80
2022/12/26 08:14:36;;;;;;;3.70;2.33;;;;;;;;;;5063725;28;20598;-80
2022/12/26 08:17:02;;;;;;;4.50;2.22;;;;;;;;;;5059371;28;20020;-80
2022/12/26 08:19:27;;;;;;;3.92;2.67;;;;;;;;;;5064047;28;20081;-79
2022/12/26 08:21:52;;;;;;;4.45;2.22;;;;;;;;;;5068653;28;20361;-80
2022/12/26 08:24:18;;;;;;;5.25;2.40;;;;;;;;;;5068088;28;20031;-80
2022/12/26 08:26:43;;;;;;;7.18;2.58;;;;;;;;;;5064229;28;20408;-80
2022/12/26 08:29:09;;;;;;;4.78;2.50;;;;;;;;;;5064723;28;20031;-80
2022/12/26 08:31:34;;;;;;;4.07;2.38;;;;;;;;;;5060328;28;20043;-80
2022/12/26 08:33:59;;;;;;;4.30;2.15;;;;;;;;;;5057748;28;20885;-80
2022/12/26 08:36:25;;;;;;;4.18;2.33;;;;;;;;;;5060573;28;20396;-80
2022/12/26 08:38:50;;;;;;;7.35;2.65;;;;;;;;;;5061659;28;20028;-80
2022/12/26 08:41:16;;;;;;;4.03;2.60;;;;;;;;;;5061993;28;20028;-80
2022/12/26 08:43:42;;;;;;;4.47;2.47;;;;;;;;;;5067877;28;20020;-79
2022/12/26 08:46:09;;;;;;;4.05;2.30;;;;;;;;;;5063152;28;20020;-80
2022/12/26 08:48:36;;;;;;;5.88;2.40;;;;;;;;;;5062888;28;20390;-77
2022/12/26 08:51:07;;;;;;;4.40;2.50;;;;;;;;;;5077104;28;20083;-80
2022/12/26 08:53:34;;;;;;;4.93;2.38;;;;;;;;;;5066123;28;20040;-79
2022/12/26 08:56:02;;;;;;;5.75;2.75;;;;;;;;;;5066000;28;20206;-79
2022/12/26 08:58:28;;;;;;;4.55;2.25;;;;;;;;;;5067646;28;20037;-80
2022/12/26 09:00:54;;;;;;;5.70;2.60;;;;;;;;;;5066947;28;20031;-80
2022/12/26 09:03:20;;;;;;;5.18;3.03;;;;;;;;;;5068055;28;20020;-80
2022/12/26 09:05:45;;;;;;;6.78;2.58;;;;;;;;;;5059607;28;20495;-80
2022/12/26 09:08:11;;;;;;;3.95;2.47;;;;;;;;;;5053486;28;20381;-79
2022/12/26 09:10:36;;;;;;;3.60;2.22;;;;;;;;;;5061734;28;20029;-78
2022/12/26 09:13:02;;;;;;;3.95;2.03;;;;;;;;;;5055388;28;20493;-79
2022/12/26 09:15:27;;;;;;;3.65;1.90;;;;;;;;;;5047197;28;20024;-80
2022/12/26 09:17:53;;;;;;;4.28;2.55;;;;;;;;;;5050719;28;20043;-77
2022/12/26 09:20:18;;;;;;;5.90;2.70;;;;;;;;;;5047844;28;20590;-79
2022/12/26 09:22:49;;;;;;;4.50;2.00;;;;;;;;;;5062449;28;20571;-80
2022/12/26 09:25:18;;;;;;;5.10;2.17;;;;;;;;;;5066317;28;20028;-80
2022/12/26 09:27:44;;;;;;;5.70;2.00;;;;;;;;;;5065554;28;20067;-80
2022/12/26 09:30:10;;;;;;;5.90;1.80;;;;;;;;;;5059780;28;20028;-80
2022/12/26 09:32:38;;;;;;;3.58;1.77;;;;;;;;;;5065636;28;20120;-79
2022/12/26 09:35:04;;;;;;;3.45;2.00;;;;;;;;;;5060293;28;20130;-81
2022/12/26 09:37:30;;;;;;;4.10;1.80;;;;;;;;;;5059226;28;20044;-80
2022/12/26 09:39:55;;;;;;;3.83;1.90;;;;;;;;;;5061028;28;20024;-79
2022/12/26 09:42:46;;;;;;;3.55;1.77;;;;;;;;;;5059833;28;20053;-80
2022/12/26 09:45:19;;;;;;;3.33;1.90;;;;;;;;;;5065282;28;20020;-80
2022/12/26 09:48:18;;;;;;;4.68;2.05;;;;;;;;;;5061121;28;20837;-80
2022/12/26 09:50:48;;;;;;;5.45;2.05;;;;;;;;;;5059519;28;20028;-78
2022/12/26 09:53:39;;;;;;;5.03;2.08;;;;;;;;;;5059461;28;20033;-80
2022/12/26 09:56:31;;;;;;;5.38;2.25;;;;;;;;;;5061865;28;20047;-80
2022/12/26 09:59:12;;;;;;;6.15;2.00;;;;;;;;;;5065378;28;20048;-79
2022/12/26 10:01:38;;;;;;;5.38;1.70;;;;;;;;;;5072812;28;20043;-81
2022/12/26 10:04:16;;;;;;;3.95;1.90;;;;;;;;;;5063248;28;20036;-80
2022/12/26 10:06:54;;;;;;;5.13;1.42;;;;;;;;;;5071719;28;20036;-80
2022/12/26 10:09:34;;;;;;;4.38;1.50;;;;;;;;;;5072499;28;20501;-80
2022/12/26 10:12:02;;;;;;;4.35;1.35;;;;;;;;;;5064447;28;20020;-80
2022/12/26 10:14:41;;;;;;;7.43;1.20;;;;;;;;;;5070477;28;20029;-80
2022/12/26 10:17:34;;;;;;;1.85;0.95;;;;;;;;;;5056337;28;20055;-80
2022/12/26 10:20:24;;;;;;;2.25;0.82;;;;;;;;;;5060422;28;20078;-79
2022/12/26 10:23:10;;;;;;;4.63;1.27;;;;;;;;;;5060960;28;20043;-78
2022/12/26 10:25:45;;;;;;;5.53;0.98;;;;;;;;;;5067928;28;20484;-79
2022/12/26 10:28:40;;;;;;;2.63;1.00;;;;;;;;;;5065162;28;20175;-80
2022/12/26 10:31:25;;;;;;;2.78;1.15;;;;;;;;;;5068436;28;20469;-80
2022/12/26 10:34:09;;;;;;;3.58;1.15;;;;;;;;;;5068912;28;20488;-80
2022/12/26 10:36:46;;;;;;;3.38;1.20;;;;;;;;;;5065843;28;20476;-80
2022/12/26 10:39:33;;;;;;;3.17;1.10;;;;;;;;;;5060064;28;20037;-80
2022/12/26 10:42:07;;;;;;;5.40;1.33;;;;;;;;;;5060829;28;20607;-78
2022/12/26 10:44:32;;;;;;;3.40;1.20;;;;;;;;;;5058507;28;20031;-79
2022/12/26 10:47:17;;;;;;;5.18;1.30;;;;;;;;;;5065289;28;20415;-79
2022/12/26 10:49:44;;;;;;;6.05;1.67;;;;;;;;;;5065473;28;20082;-79
2022/12/26 10:52:11;;;;;;;5.57;1.48;;;;;;;;;;5063581;28;20381;-79
2022/12/26 10:54:36;;;;;;;3.78;1.10;;;;;;;;;;5064384;28;20519;-80
2022/12/26 10:57:04;;;;;;;4.57;1.13;;;;;;;;;;5063717;28;20024;-80
2022/12/26 10:59:40;;;;;;;5.57;1.50;;;;;;;;;;5062575;28;20036;-80
2022/12/26 11:02:20;;;;;;;6.68;1.40;;;;;;;;;;5065974;28;20028;-80
2022/12/26 11:05:06;;;;;;;2.47;0.82;;;;;;;;;;5073631;28;20131;-79
2022/12/26 11:07:38;;;;;;;6.38;0.98;;;;;;;;;;5066240;28;20415;-80
2022/12/26 11:10:36;;;;;;;5.00;1.45;;;;;;;;;;5062749;28;20027;-80
2022/12/26 11:13:06;;;;;;;5.32;1.08;;;;;;;;;;5060904;28;20060;-80
2022/12/26 11:15:46;;;;;;;7.63;1.33;;;;;;;;;;5055228;28;20400;-80
2022/12/26 11:18:39;;;;;;;8.05;1.42;;;;;;;;;;5056477;28;20114;-77
2022/12/26 11:21:18;;;;;;;4.22;0.90;;;;;;;;;;5051905;28;20403;-80
2022/12/26 11:23:45;;;;;;;7.57;1.40;;;;;;;;;;5051169;28;20074;-79
2022/12/26 11:26:26;;;;;;;5.13;1.15;;;;;;;;;;5050865;28;20041;-79
2022/12/26 11:29:20;;;;;;;5.90;1.25;;;;;;;;;;5046831;28;20317;-78
2022/12/26 11:31:58;;;;;;;5.70;1.42;;;;;;;;;;5049998;28;20409;-79
2022/12/26 11:34:44;;;;;;;4.28;1.10;;;;;;;;;;5048756;28;20044;-78
2022/12/26 11:37:26;;;;;;;6.47;1.10;;;;;;;;;;5053099;28;20061;-79
2022/12/26 11:39:52;;;;;;;3.70;0.88;;;;;;;;;;5054899;28;20033;-79
2022/12/26 11:42:21;;;;;;;3.67;1.00;;;;;;;;;;5053704;28;20024;-79
2022/12/26 11:44:51;;;;;;;2.88;1.10;;;;;;;;;;5057719;28;20413;-79
2022/12/26 11:47:20;;;;;;;2.65;1.00;;;;;;;;;;5048395;28;20144;-77
2022/12/26 11:50:00;;;;;;;2.45;1.15;;;;;;;;;;5051058;28;20165;-79
2022/12/26 11:52:48;;;;;;;5.50;1.08;;;;;;;;;;5059091;28;20124;-77
2022/12/26 11:55:26;;;;;;;5.93;1.58;;;;;;;;;;5051488;28;20505;-78
2022/12/26 11:58:07;;;;;;;6.97;1.30;;;;;;;;;;5054802;28;20173;-79
2022/12/26 12:00:40;;;;;;;4.13;1.50;;;;;;;;;;5051278;28;20044;-78
2022/12/26 12:03:24;;;;;;;4.28;1.00;;;;;;;;;;5055370;28;20025;-78
2022/12/26 12:06:11;;;;;;;5.72;1.20;;;;;;;;;;5047588;28;20029;-78
2022/12/26 12:08:46;;;;;;;4.80;1.27;;;;;;;;;;5049644;28;20107;-78
2022/12/26 12:11:18;;;;;;;4.30;1.48;;;;;;;;;;5046533;28;20473;-78
2022/12/26 12:14:01;;;;;;;4.28;1.20;;;;;;;;;;5056711;28;20386;-77
2022/12/26 12:16:34;;;;;;;7.45;1.17;;;;;;;;;;5051784;28;20039;-79
2022/12/26 12:19:06;;;;;;;6.97;1.20;;;;;;;;;;5060120;28;20048;-77
2022/12/26 12:21:45;;;;;;;5.43;1.08;;;;;;;;;;5052319;28;20028;-77
2022/12/26 12:24:16;;;;;;;5.70;1.60;;;;;;;;;;5059343;28;20095;-76
2022/12/26 12:26:53;;;;;;;2.75;1.05;;;;;;;;;;5063900;28;20519;-78
2022/12/26 12:29:24;;;;;;;2.72;1.08;;;;;;;;;;5058465;28;20078;-76
2022/12/26 12:32:01;;;;;;;5.32;1.08;;;;;;;;;;5061187;28;20364;-78
2022/12/26 12:34:49;;;;;;;3.53;1.20;;;;;;;;;;5065671;28;20032;-78
2022/12/26 12:38:01;;;;;;;5.22;1.17;;;;;;;;;;5059628;28;20032;-78
2022/12/26 12:41:05;;;;;;;7.88;1.42;;;;;;;;;;5053186;28;20052;-78
2022/12/26 12:43:36;;;;;;;3.10;1.15;;;;;;;;;;5055066;28;20131;-79
2022/12/26 12:46:27;;;;;;;5.28;1.40;;;;;;;;;;5053017;28;20036;-76
2022/12/26 12:49:11;;;;;;;4.55;1.52;;;;;;;;;;5051974;28;20040;-77
2022/12/26 12:51:52;;;;;;;4.22;1.20;;;;;;;;;;5050401;28;20610;-78
2022/12/26 12:54:38;;;;;;;7.47;1.10;;;;;;;;;;5051350;28;20033;-76
2022/12/26 12:57:18;;;;;;;4.47;1.15;;;;;;;;;;5051855;28;20033;-78
2022/12/26 12:59:53;;;;;;;3.13;1.27;;;;;;;;;;5058369;28;20024;-78
2022/12/26 13:02:33;;;;;;;7.97;1.63;;;;;;;;;;5054137;28;20448;-77
2022/12/26 13:05:17;;;;;;;6.70;1.73;;;;;;;;;;5059434;28;20044;-77
2022/12/26 13:07:53;;;;;;;6.32;1.63;;;;;;;;;;5052453;28;20036;-77
2022/12/26 13:10:25;;;;;;;8.38;1.70;;;;;;;;;;5056073;28;20059;-78
2022/12/26 13:12:52;;;;;;;5.18;1.33;;;;;;;;;;5057851;28;20059;-77
2022/12/26 13:15:42;;;;;;;4.13;1.40;;;;;;;;;;5058777;28;20032;-78
2022/12/26 13:18:16;;;;;;;5.47;1.25;;;;;;;;;;5072409;28;20400;-78
2022/12/26 13:20:59;;;;;;;4.75;1.45;;;;;;;;;;5052366;28;20485;-77
2022/12/26 13:26:36;;;;;;;2.83;1.27;;;;;;;;;;5058135;28;20137;-77
2022/12/26 13:29:15;;;;;;;2.85;1.38;;;;;;;;;;5050981;28;20062;-77
2022/12/26 13:31:41;;;;;;;4.80;1.13;;;;;;;;;;5055757;28;20062;-78
2022/12/26 13:34:14;;;;;;;10.43;1.70;;;;;;;;;;5059776;28;20058;-78
2022/12/26 13:36:42;;;;;;;4.82;1.48;;;;;;;;;;5064521;28;20035;-78
2022/12/26 13:39:13;;;;;;;8.00;1.42;;;;;;;;;;5056993;28;20033;-77
2022/12/26 13:44:35;;;;;;;4.43;1.13;;;;;;;;;;5059815;28;20318;-78
2022/12/26 13:47:00;;;;;;;4.55;1.42;;;;;;;;;;5057201;28;21163;-78
2022/12/26 13:49:37;;;;;;;5.25;1.30;;;;;;;;;;5051153;28;20024;-77
2022/12/26 13:52:13;;;;;;;5.55;1.88;;;;;;;;;;5060756;28;20032;-78
2022/12/26 13:54:49;;;;;;;3.60;1.00;;;;;;;;;;5052455;28;20055;-78
2022/12/26 13:57:39;;;;;;;3.92;1.00;;;;;;;;;;5061842;28;20055;-79
2022/12/26 14:00:05;;;;;;;2.55;0.80;;;;;;;;;;5058482;28;20419;-79
2022/12/26 14:02:45;;;;;;;5.55;1.52;;;;;;;;;;5050312;28;20020;-79
2022/12/26 14:05:21;;;;;;;2.78;0.80;;;;;;;;;;5051680;28;20097;-79
2022/12/26 14:08:21;;;;;;;3.88;1.00;;;;;;;;;;5056450;28;20028;-78
2022/12/26 14:11:12;;;;;;;5.43;0.88;;;;;;;;;;5057429;28;20037;-79
2022/12/26 14:13:58;;;;;;;2.38;0.80;;;;;;;;;;5061338;28;20476;-78
2022/12/26 14:16:32;;;;;;;1.83;0.82;;;;;;;;;;5053751;28;20116;-76
2022/12/26 14:19:30;;;;;;;1.63;0.73;;;;;;;;;;5052646;28;20036;-79
2022/12/26 14:22:12;;;;;;;2.88;0.80;;;;;;;;;;5044650;28;20070;-79
2022/12/26 14:25:24;;;;;;;4.38;0.93;;;;;;;;;;5054025;28;20029;-79
2022/12/26 14:28:01;;;;;;;3.28;1.33;;;;;;;;;;5044467;28;20052;-78
2022/12/26 14:30:34;;;;;;;2.22;0.85;;;;;;;;;;5052676;28;20040;-77
2022/12/26 14:32:59;;;;;;;;;;;;;;;;;;5052280;28;20028;-77
2022/12/26 14:35:32;;;;;;;2.65;1.10;;;;;;;;;;5050591;28;20066;-77
2022/12/26 14:38:32;;;;;;;3.83;0.85;;;;;;;;;;5060593;28;20353;-78
2022/12/26 14:41:02;;;;;;;3.53;1.00;;;;;;;;;;5065107;28;20492;-78
2022/12/26 14:43:39;;;;;;;3.50;0.75;;;;;;;;;;5052384;28;20033;-77
2022/12/26 14:46:30;;;;;;;4.85;1.00;;;;;;;;;;5052106;28;20036;-78
2022/12/26 14:48:59;;;;;;;2.80;0.90;;;;;;;;;;5052158;28;20512;-80
2022/12/26 14:51:31;;;;;;;3.00;0.90;;;;;;;;;;5052606;28;20029;-77
2022/12/26 14:54:20;;;;;;;2.97;0.73;;;;;;;;;;5049206;28;20155;-79
2022/12/26 14:56:50;;;;;;;2.35;0.68;;;;;;;;;;5046360;28;20028;-79
2022/12/26 14:59:44;;;;;;;1.90;1.00;;;;;;;;;;5050356;28;20044;-79
2022/12/26 15:02:32;;;;;;;2.17;0.80;;;;;;;;;;5048708;28;20036;-78
2022/12/26 15:05:17;;;;;;;2.70;1.00;;;;;;;;;;5047613;28;20024;-77
2022/12/26 15:08:09;;;;;;;2.17;1.00;;;;;;;;;;5043818;28;20187;-77
2022/12/26 15:10:52;;;;;;;2.83;1.10;;;;;;;;;;5052579;28;20081;-77
2022/12/26 15:13:44;;;;;;;1.52;0.80;;;;;;;;;;5050576;28;20053;-78
2022/12/26 15:16:38;;;;;;;1.77;0.90;;;;;;;;;;5050472;28;20253;-78
2022/12/26 15:19:21;;;;;;;4.32;0.85;;;;;;;;;;5046615;28;20178;-78
2022/12/26 15:21:58;;;;;;;2.63;0.82;;;;;;;;;;5051955;28;20539;-79
2022/12/26 15:24:51;;;;;;;3.88;1.20;;;;;;;;;;5050893;28;20695;-77
2022/12/26 15:27:54;;;;;;;3.53;1.00;;;;;;;;;;5047317;28;20048;-80
2022/12/26 15:30:22;;;;;;;2.33;1.47;;;;;;;;;;5046664;28;20476;-77
2022/12/26 15:32:56;;;;;;;4.05;1.83;;;;;;;;;;5051296;28;20066;-79
2022/12/26 15:35:34;;;;;;;2.78;1.50;;;;;;;;;;5054796;28;20106;-79
2022/12/26 15:38:20;;;;;;;4.38;1.45;;;;;;;;;;5051934;28;20044;-78
2022/12/26 15:41:10;;;;;;;3.55;1.10;;;;;;;;;;5047145;28;20397;-78
2022/12/26 15:43:47;;;;;;;2.10;1.00;;;;;;;;;;5056999;28;20715;-80
2022/12/26 15:46:21;;;;;;;4.20;1.70;;;;;;;;;;5053246;28;20170;-79
2022/12/26 15:49:11;;;;;;;;;;;;;;;;;;5051352;28;20027;-79
2022/12/26 15:51:55;;;;;;;4.93;2.10;;;;;;;;;;5052479;28;20644;-77
2022/12/26 15:54:26;;;;;;;7.85;3.10;;;;;;;;;;5055002;28;20557;-79
2022/12/26 15:56:57;;;;;;;5.38;2.45;;;;;;;;;;5049597;28;20040;-78
2022/12/26 15:59:41;;;;;;;3.70;1.95;;;;;;;;;;5049117;28;20033;-76
2022/12/26 16:02:28;;;;;;;4.82;1.80;;;;;;;;;;5045941;28;20035;-79
2022/12/26 16:05:11;;;;;;;4.20;1.55;;;;;;;;;;5045601;28;20516;-79
2022/12/26 16:07:41;;;;;;;4.57;1.40;;;;;;;;;;5045712;28;20032;-77
2022/12/26 16:10:31;;;;;;;3.72;1.33;;;;;;;;;;5049444;28;20644;-77
2022/12/26 16:13:21;;;;;;;8.20;1.58;;;;;;;;;;5050437;28;20029;-78
2022/12/26 16:15:56;;;;;;;5.63;1.27;;;;;;;;;;5052724;28;20027;-78
2022/12/26 16:18:26;;;;;;;5.47;1.70;;;;;;;;;;5044849;28;20039;-79
2022/12/26 16:23:42;;;;;;;5.90;1.90;;;;;;;;;;5046833;28;20043;-77
2022/12/26 16:29:21;;;;;;;3.63;1.70;;;;;;;;;;4972281;28;20054;-78
2022/12/26 16:31:46;;;;;;;9.43;3.40;;;;;;;;;;5063540;28;20183;-77
2022/12/26 16:34:18;;;;;;;7.65;2.97;;;;;;;;;;5059318;28;20684;-79
2022/12/26 16:36:45;;;;;;;8.60;3.42;;;;;;;;;;5050512;28;20043;-79
2022/12/26 16:39:12;;;;;;;5.30;2.55;;;;;;;;;;5045650;28;20028;-76
2022/12/26 16:42:04;;;;;;;5.70;2.25;;;;;;;;;;5044189;28;20047;-79
2022/12/26 16:44:38;;;;;;;5.25;2.30;;;;;;;;;;5049030;28;20315;-79
2022/12/26 16:47:06;;;;;;;4.85;2.22;;;;;;;;;;5052310;28;20032;-79
2022/12/26 16:49:33;;;;;;;7.53;2.90;;;;;;;;;;5050579;28;20032;-75
2022/12/26 16:51:59;;;;;;;13.25;3.38;;;;;;;;;;5049962;28;20039;-78
2022/12/26 16:54:27;;;;;;;8.90;3.78;;;;;;;;;;5053239;28;20036;-77
2022/12/26 16:57:07;;;;;;;18.00;6.10;;;;;;;;;;5051430;28;20048;-79
2022/12/26 16:59:41;;;;;;;34.67;10.50;;;;;;;;;;5055021;28;20040;-77
2022/12/26 17:02:33;;;;;;;15.23;5.47;;;;;;;;;;5055250;28;20447;-76
2022/12/26 17:05:02;;;;;;;13.73;5.22;;;;;;;;;;5053311;28;20362;-78
2022/12/26 17:07:28;;;;;;;15.43;5.85;;;;;;;;;;5049625;28;20032;-79
2022/12/26 17:09:57;;;;;;;13.45;4.95;;;;;;;;;;5049095;28;20028;-79
2022/12/26 17:12:40;;;;;;;13.20;3.80;;;;;;;;;;5054099;28;20032;-77
2022/12/26 17:15:07;;;;;;;11.43;3.88;;;;;;;;;;5047587;28;20107;-78
2022/12/26 17:17:35;;;;;;;10.85;3.28;;;;;;;;;;5048177;28;20229;-77
2022/12/26 17:20:22;;;;;;;8.52;3.65;;;;;;;;;;5048267;28;20530;-78
2022/12/26 17:22:50;;;;;;;12.60;2.88;;;;;;;;;;5048977;28;20711;-76
2022/12/26 17:25:25;;;;;;;18.20;6.53;;;;;;;;;;5048495;28;20056;-79
2022/12/26 17:28:13;;;;;;;21.98;6.88;;;;;;;;;;5058971;28;20040;-77
2022/12/26 17:30:44;;;;;;;12.02;4.45;;;;;;;;;;5051438;28;20028;-78
2022/12/26 17:33:13;;;;;;;15.43;5.70;;;;;;;;;;5052723;28;20020;-79